Weather observations for the past three days for
Watauga County Hospital Heliport
Imperial (Metric)
Date Time (edt) Wind (mph) Vis. (mi.) Weather Sky Cond. Temperature (ºF) Relative Humidity Wind Chill (°F) Heat Index (°F) Pressure Precipitation (in)
Air Dwpt 6 hour altimeter (in) sea level (mb) 1 hr 3 hr 6 hr
Max. Min.
01 11:55 Calm 10.00 NULL NULL 81.1 63.3 55% 82 30.29 0.0
01 11:35 Calm 10.00 NULL NULL 81.3 64 56% 83 30.29 0.0
01 11:15 Calm 10.00 NULL NULL 79 64.2 61% 81 30.29 0.0
01 10:55 Calm 10.00 NULL NULL 77.9 63.9 62% 80 30.29 0.0
01 10:35 Calm 10.00 NULL NULL 77.2 63.9 64% 79 30.29 0.0
01 10:15 Calm 10.00 NULL NULL 76.5 63.7 65% 78 30.29 0.0
01 09:55 Calm 10.00 NULL NULL 75.4 63.7 67% 77 30.29 0.0
01 09:35 Calm 10.00 NULL NULL 74.1 63.7 70% 30.29 0.0
01 09:15 Calm 10.00 NULL NULL 69.3 69.3 100% 30.29 0.0
01 08:55 Calm 10.00 NULL NULL 65.8 65.8 100% 30.29 0.0
01 08:35 Calm 10.00 NULL NULL 64 64 100% 30.29 0.0
01 08:15 Calm 7.00 NULL NULL 62.6 62.6 100% 30.29 0.0
01 07:55 Calm 4.00 Fog/Mist NULL 61.3 61.3 64.4 59.9 100% 30.28 0.0
01 07:35 Calm 3.00 Fog/Mist NULL 60.4 60.4 100% 30.27 0.0
01 07:15 Calm 2.50 Fog/Mist NULL 59.9 59.9 100% 30.26 0.0
01 06:55 Calm 5.00 Fog/Mist NULL 61 61 100% 30.26 0.0
01 06:35 Calm 2.50 Fog/Mist NULL 60.4 60.4 100% 30.26 0.0
01 06:15 Calm 2.00 Fog/Mist NULL 60.8 60.8 100% 30.25 0.0
01 05:55 Calm 1.25 Fog/Mist NULL 61.3 61.3 100% 30.25 0.0
01 05:35 Calm 5.00 Fog/Mist NULL 61.3 61.3 100% 30.25 0.0
01 05:15 Calm 4.00 Fog/Mist NULL 61.7 61.7 100% 30.25 0.0
01 04:55 Calm 2.00 Fog/Mist NULL 61.9 61.9 100% 30.26 0.0
01 04:35 Calm 2.50 Fog/Mist NULL 62.1 62.1 100% 30.25 0.0
01 04:15 Calm 3.00 Fog/Mist NULL 62.2 62.2 100% 30.25 0.0
01 03:55 Calm 1.25 Fog/Mist NULL 62.2 62.2 100% 30.26 0.0
01 03:35 Calm 2.50 Fog/Mist NULL 62.4 62.4 100% 30.26 0.0
01 03:15 Calm 1.25 Fog/Mist NULL 62.6 62.6 100% 30.27 0.0
01 02:55 Calm 3.00 Fog/Mist NULL 63.3 63.3 100% 30.27 0.0
01 02:35 Calm 4.00 Fog/Mist NULL 63 63 100% 30.28 0.0
01 02:15 Calm 1.25 Fog/Mist NULL 63 63 100% 30.28 0.0
01 01:55 Calm 7.00 NULL NULL 64 64 74.3 63.5 100% 30.28 0.0
01 01:35 Calm 3.00 Fog/Mist NULL 63.7 63.7 100% 30.28 0.0
01 01:15 Calm 3.00 Fog/Mist NULL 63.9 63.9 100% 30.28 0.0
01 00:55 Calm 5.00 Fog/Mist NULL 64.8 64.8 100% 30.29 0.0
01 00:35 Calm 5.00 Fog/Mist NULL 65.3 65.3 100% 30.28 0.0
01 00:15 Calm 4.00 Fog/Mist NULL 65.3 65.3 100% 30.27 0.0
31 23:55 Calm 10.00 NULL NULL 65.8 65.8 100% 30.27 0.0
31 23:35 Calm 10.00 NULL NULL 67.1 67.1 100% 30.27 0.0
31 23:15 Calm 4.00 Fog/Mist NULL 66 66 100% 30.27 0.0
31 22:55 Calm 10.00 NULL NULL 67.1 67.1 100% 30.27 0.0
31 22:35 Calm 10.00 NULL NULL 68 68 100% 30.27 0.0
31 22:15 Calm 10.00 NULL NULL 68.2 68.2 100% 30.27 0.0
31 21:55 Calm 10.00 NULL NULL 68.4 68.4 100% 30.27 0.0
31 21:35 Calm 10.00 NULL NULL 68.9 68.9 100% 30.26 0.0
31 21:15 Calm 10.00 NULL NULL 69.3 69.3 100% 30.26 0.0
31 20:55 Calm 10.00 NULL NULL 70.3 69.6 98% 30.26 0.0
31 20:35 Calm 10.00 NULL NULL 71.1 66.6 86% 30.26 0.0
31 20:15 Calm 10.00 NULL NULL 73.4 66.4 79% 30.25 0.0
31 19:35 Calm 10.00 NULL NULL 78.3 63.7 61% 80 30.25 0.0
31 19:15 Calm 10.00 NULL NULL 79.2 62.8 57% 81 30.25 0.0
31 18:55 Calm 10.00 NULL NULL 79.7 63.7 58% 81 30.25 0.0
31 18:15 Calm 10.00 NULL NULL 78.1 65.3 65% 80 30.25 0.0
31 17:55 Calm 10.00 NULL NULL 77.4 66.2 69% 79 30.25 0.0
31 17:35 Calm 10.00 NULL NULL 78.6 65.1 63% 80 30.26 0.0
31 17:15 Calm 10.00 NULL NULL 77.4 65.1 66% 79 30.26 0.0
31 16:55 Calm 10.00 NULL NULL 79.2 64.4 61% 81 30.25 0.0
31 16:35 Calm 10.00 NULL NULL 81.5 66.7 61% 84 30.26 0.0
31 16:15 Calm 10.00 NULL NULL 80.4 67.1 64% 83 30.26 0.0
31 15:55 Calm 10.00 NULL NULL 79.2 65.8 64% 81 30.26 0.0
31 15:35 Calm 10.00 NULL NULL 81.5 58.6 46% 82 30.26 0.0
31 15:15 Calm 10.00 NULL NULL 82 61.7 50% 83 30.27 0.0
31 14:55 Calm 10.00 NULL NULL 81.7 62.1 51% 83 30.28 0.0
31 14:15 Calm 10.00 NULL NULL 79.2 61.2 54% 80 30.28 0.0
31 13:55 Calm 10.00 NULL NULL 79.3 60.6 81.7 61 53% 80 30.28 0.0
31 13:35 Calm 10.00 NULL NULL 81.7 60.4 49% 82 30.29 0.0
31 13:15 Calm 10.00 NULL NULL 78.6 60.8 54% 80 30.29 0.0
31 12:55 Calm 10.00 NULL NULL 80.8 61.3 52% 82 30.29 0.0
31 12:35 Calm 10.00 NULL NULL 79 62.1 56% 80 30.3 0.0
31 12:15 Calm 10.00 NULL NULL 77.9 63.5 61% 80 30.3 0.0
31 11:55 Calm 10.00 NULL NULL 79.7 64 59% 81 30.29 0.0
31 11:35 Calm 10.00 NULL NULL 79.5 64.2 60% 81 30.3 0.0
31 11:15 Calm 10.00 NULL NULL 78.3 64.4 63% 80 30.29 0.0
31 10:55 Calm 10.00 NULL NULL 77.9 64.6 64% 80 30.29 0.0
31 10:35 Calm 10.00 NULL NULL 77.2 64 64% 79 30.29 0.0
31 10:15 Calm 10.00 NULL NULL 74.7 64.2 70% 30.29 0.0
31 09:55 Calm 10.00 NULL NULL 73.2 64.2 74% 30.29 0.0
31 09:35 Calm 10.00 NULL NULL 72.3 64.4 76% 30.3 0.0
31 09:15 Calm 10.00 NULL NULL 70.7 65.8 85% 30.3 0.0
31 08:55 Calm 10.00 NULL NULL 66.9 66.9 100% 30.29 0.0
31 08:35 Calm 7.00 NULL NULL 63.7 63.7 100% 30.29 0.0
31 08:15 Calm 7.00 NULL NULL 62.1 62.1 100% 30.29 0.0
31 07:55 Calm 7.00 NULL NULL 61 61 64.4 58.8 100% 30.29 0.0
31 07:35 Calm 4.00 Fog/Mist NULL 60.3 60.3 100% 30.29 0.0
31 07:15 Calm 1.25 Fog/Mist NULL 59.5 59.5 100% 30.28 0.0
31 06:55 Calm 1.75 Fog/Mist NULL 59 59 100% 30.28 0.0
31 06:35 Calm 2.00 Fog/Mist NULL 59.7 59.7 100% 30.27 0.0
31 06:15 Calm 4.00 Fog/Mist NULL 59.9 59.9 100% 30.27 0.0
31 05:55 Calm 3.00 Fog/Mist NULL 60.1 60.1 100% 30.27 0.0
31 05:35 Calm 5.00 Fog/Mist NULL 60.4 60.4 100% 30.26 0.0
31 05:15 Calm 5.00 Fog/Mist NULL 61 61 100% 30.26 0.0
31 04:55 Calm 10.00 NULL NULL 61.5 61.5 100% 30.26 0.0
31 04:35 Calm 3.00 Fog/Mist NULL 61.3 61.3 100% 30.26 0.0
31 04:15 Calm 4.00 Fog/Mist NULL 62.6 62.6 100% 30.26 0.0
31 03:55 Calm 5.00 Fog/Mist NULL 62.4 62.4 100% 30.26 0.0
31 03:35 Calm 5.00 Fog/Mist NULL 62.6 62.6 100% 30.27 0.0
31 03:15 Calm 10.00 NULL NULL 63.7 63.7 100% 30.26 0.0
31 02:55 Calm 10.00 NULL NULL 63.7 63.7 100% 30.27 0.0
31 02:35 Calm 5.00 Fog/Mist NULL 63.7 63.7 100% 30.27 0.0
31 02:15 Calm 7.00 NULL NULL 63.7 63.7 100% 30.27 0.0
31 01:55 Calm 7.00 NULL NULL 64.4 64.4 70.2 64.4 100% 30.28 0.0
31 01:35 Calm 4.00 Fog/Mist NULL 65.3 65.3 100% 30.29 0.0
31 01:15 Calm 1.25 Fog/Mist NULL 65.5 65.5 100% 30.29 0.0
31 00:55 Calm 2.50 Fog/Mist NULL 65.5 65.5 100% 30.28 0.0
31 00:35 Calm 0.50 Fog NULL 65.8 65.8 100% 30.28 0.0
31 00:15 Calm 0.50 Fog NULL 66.2 66.2 100% 30.28 0.0
30 23:55 Calm 0.50 Fog NULL 66.4 66.4 100% 30.29 0.0
30 23:15 Calm 7.00 NULL NULL 65.8 65.8 100% 30.3 0.0
30 22:55 Calm 10.00 NULL NULL 66.7 66.7 100% 30.29 0.0
30 22:35 Calm 5.00 Fog/Mist NULL 66.4 66.4 100% 30.29 0.0
30 22:15 Calm 10.00 NULL NULL 67.3 67.3 100% 30.29 0.0
30 21:55 Calm 10.00 NULL NULL 68.2 68.2 100% 30.29 0.0
30 21:35 Calm 7.00 NULL NULL 67.1 67.1 100% 30.29 0.0
30 21:15 Calm 10.00 NULL NULL 67.3 67.3 100% 30.29 0.0
30 20:55 Calm 10.00 NULL NULL 67.6 67.6 100% 30.27 0.0
30 20:35 Calm 10.00 NULL NULL 68.4 68.4 100% 30.27 0.0
30 20:15 Calm 10.00 NULL NULL 68.9 68.9 100% 30.27 0.0
30 19:55 Calm 10.00 NULL NULL 69.8 69.8 82.4 69.8 100% 30.26 0.0 0.04
30 19:35 Calm 10.00 NULL NULL 71.2 66 84% 30.27 0.0
30 19:15 Calm 10.00 NULL NULL 74.3 64.8 72% 30.26 0.0
30 18:55 Calm 10.00 NULL NULL 74.1 65.5 75% 30.26 0.0
30 18:35 Calm 10.00 NULL NULL 74.1 65.7 75% 30.26 0.0
30 18:15 Calm 10.00 NULL NULL 72.1 71.4 98% 30.27 0.0
30 17:55 Calm 5.00 Light Rain NULL 70.5 70.5 100% 30.27 0.0 0.04
30 17:35 Calm 7.00 Rain NULL 73 67.3 82% 30.27 0.0 0.01
30 17:15 Calm 10.00 Light Rain NULL 75.2 63.5 67% 77 30.27 0.0
30 16:55 Calm 10.00 NULL NULL 76.6 63.7 64% 78 30.26 0.0
30 16:35 Calm 10.00 NULL NULL 79.9 64.8 60% 82 30.26 0.0
30 16:15 Calm 10.00 NULL NULL 81.5 65.3 58% 83 30.26 0.0
30 15:55 Calm 10.00 NULL NULL 81.7 65.3 58% 84 30.26 0.0
30 15:35 Calm 10.00 NULL NULL 78.4 65.1 64% 80 30.27 0.0
30 15:15 Calm 10.00 NULL NULL 79 64.4 61% 81 30.28 0.0
30 14:55 Calm 10.00 NULL NULL 77.9 65.5 66% 80 30.29 0.0
30 14:35 Calm 10.00 NULL NULL 75.2 64.9 71% 77 30.3 0.0
30 14:15 Calm 10.00 NULL NULL 77.5 66.2 68% 79 30.3 0.0
30 13:55 Calm 10.00 NULL NULL 79.9 66.9 79.9 63.5 65% 82 30.31 0.0
30 13:35 Calm 10.00 NULL NULL 78.4 66.6 67% 80 30.32 0.0
30 13:15 Calm 10.00 NULL NULL 78.4 66.4 67% 80 30.32 0.0
30 12:55 Calm 10.00 NULL NULL 78.6 65.3 64% 81 30.33 0.0
30 12:35 Calm 10.00 NULL NULL 78.4 65.8 65% 80 30.33 0.0
30 12:15 Calm 10.00 NULL NULL 77 65.1 67% 79 30.33 0.0
30 11:55 Calm 10.00 NULL NULL 76.1 66.2 72% 78 30.33 0.0
30 11:35 Calm 10.00 NULL NULL 74.3 66 75% 30.34 0.0
30 11:15 Calm 10.00 NULL NULL 72.7 65.3 78% 30.34 0.0
30 10:55 Calm 10.00 NULL NULL 72.5 66 80% 30.34 0.0
30 10:35 Calm 10.00 NULL NULL 72.5 65.8 80% 30.34 0.0
30 10:15 Calm 10.00 NULL NULL 70.3 66.2 87% 30.33 0.0
30 09:55 Calm 10.00 NULL NULL 70.5 64.6 82% 30.33 0.0
30 09:35 Calm 10.00 NULL NULL 70 66.4 88% 30.33 0.0
30 09:15 Calm 10.00 NULL NULL 68.4 68.4 100% 30.34 0.0
30 08:55 Calm 7.00 NULL NULL 65.1 65.1 100% 30.34 0.0
30 08:35 Calm 3.00 Fog/Mist NULL 64.6 64.6 100% 30.35 0.0
30 08:15 Calm 1.50 Fog/Mist NULL 63.9 63.9 100% 30.34 0.0
30 07:55 Calm 1.00 Fog/Mist NULL 63.3 63.3 65.3 63.1 100% 30.32 0.0
30 07:35 Calm 2.00 Fog/Mist NULL 63.7 63.7 100% 30.32 0.0
30 07:15 Calm 3.00 Fog/Mist NULL 64.2 64.2 100% 30.31 0.0
30 06:55 Calm 5.00 Fog/Mist NULL 64.2 64.2 100% 30.3 0.0
30 06:35 Calm 2.50 Fog/Mist NULL 64 64 100% 30.3 0.0
30 06:15 Calm 3.00 Fog/Mist NULL 63.9 63.9 100% 30.29 0.0
30 05:55 Calm 1.75 Fog/Mist NULL 63.9 63.9 100% 30.29 0.0
30 05:35 Calm 3.00 Fog/Mist NULL 64 64 100% 30.3 0.0
30 05:15 Calm 5.00 Fog/Mist NULL 64.8 64.8 100% 30.31 0.0
30 04:55 Calm 7.00 NULL NULL 64.8 64.8 100% 30.31 0.0
30 04:35 Calm 5.00 Fog/Mist NULL 64.4 64.4 100% 30.3 0.0
30 04:15 Calm 7.00 NULL NULL 64.6 64.6 100% 30.3 0.0
30 03:55 Calm 5.00 Fog/Mist NULL 64 64 100% 30.3 0.0
30 03:35 Calm 7.00 NULL NULL 64.4 64.4 100% 30.31 0.0
30 03:15 Calm 7.00 NULL NULL 64.4 64.4 100% 30.31 0.0
30 02:55 Calm 5.00 Fog/Mist NULL 63.9 63.9 100% 30.31 0.0
30 02:35 Calm 7.00 NULL NULL 64.4 64.4 100% 30.31 0.0
30 02:15 Calm 10.00 NULL NULL 64.8 64.8 100% 30.32 0.0
30 01:55 Calm 10.00 NULL NULL 65.3 65.3 70 64.2 100% 30.32 0.0
30 01:35 Calm 10.00 NULL NULL 65.5 65.5 100% 30.33 0.0
30 01:15 Calm 10.00 NULL NULL 66.7 66.4 99% 30.33 0.0
30 00:55 Calm 10.00 NULL NULL 68 64.9 90% 30.33 0.0
30 00:35 Calm 10.00 NULL NULL 66.9 66.9 100% 30.33 0.0
30 00:15 Calm 10.00 NULL NULL 66.2 66.2 100% 30.33 0.0
29 23:55 Calm 10.00 NULL NULL 65.1 65.1 100% 30.33 0.0
29 23:35 Calm 10.00 NULL NULL 65.7 65.7 100% 30.33 0.0
29 23:15 Calm 7.00 NULL NULL 65.1 65.1 100% 30.34 0.0
29 22:55 Calm 7.00 NULL NULL 65.1 65.1 100% 30.33 0.0
29 22:35 Calm 7.00 NULL NULL 65.1 65.1 100% 30.32 0.0
29 22:15 Calm 7.00 NULL NULL 65.3 65.3 100% 30.32 0.0
29 21:55 Calm 10.00 NULL NULL 66.4 66.4 100% 30.31 0.0
29 21:35 Calm 10.00 NULL NULL 66.2 66.2 100% 30.31 0.0
29 21:15 Calm 10.00 NULL NULL 66.2 66.2 100% 30.3 0.0
29 20:55 Calm 10.00 NULL NULL 67.1 67.1 100% 30.29 0.0
29 20:15 Calm 10.00 NULL NULL 68.2 68 99% 30.28 0.0
29 19:55 Calm 10.00 NULL NULL 70.2 64.6 79.7 70.2 83% 30.28 0.0
29 19:35 Calm 10.00 NULL NULL 71.1 64.6 80% 30.28 0.0
29 19:15 Calm 10.00 NULL NULL 72.9 64.8 76% 30.28 0.0
29 18:55 Calm 10.00 NULL NULL 74.3 64.9 73% 30.28 0.0
29 18:35 Calm 10.00 NULL NULL 73.6 64.9 74% 30.28 0.0
29 18:15 Calm 10.00 NULL NULL 73.6 63.9 72% 30.28 0.0
29 17:55 Calm 10.00 NULL NULL 76.3 65.3 69% 78 30.27 0.0
29 17:35 Calm 10.00 NULL NULL 76.5 65.8 70% 78 30.27 0.0
29 17:15 Calm 10.00 NULL NULL 77.4 65.5 67% 79 30.27 0.0
29 16:55 Calm 10.00 NULL NULL 75 63.5 68% 77 30.27 0.0
29 16:35 Calm 10.00 NULL NULL 79.2 64.8 61% 81 30.28 0.0
29 16:15 Calm 10.00 NULL NULL 78.1 64.4 63% 80 30.28 0.0
29 15:55 Calm 10.00 NULL NULL 79.7 65.1 61% 82 30.28 0.0
29 15:35 Calm 10.00 NULL NULL 78.8 66.6 66% 81 30.29 0.0
29 15:15 Calm 10.00 NULL NULL 75.9 63.5 66% 78 30.3 0.0
29 14:55 Calm 10.00 NULL NULL 74.7 64.6 71% 30.3 0.0
29 14:35 Calm 10.00 NULL NULL 73.9 64.2 72% 30.31 0.0
29 14:15 Calm 10.00 NULL NULL 76.6 66 70% 78 30.32 0.0
29 13:55 Calm 10.00 NULL NULL 73.2 63.9 77.4 56.3 73% 30.33 0.0
29 13:35 Calm 10.00 NULL NULL 76.8 64.9 67% 79 30.33 0.0
29 13:15 Calm 10.00 NULL NULL 74.7 63.5 68% 30.33 0.0
29 12:55 Calm 10.00 NULL NULL 73.2 63.7 72% 30.33 0.0
29 12:35 Calm 10.00 NULL NULL 74.1 65.3 74% 30.33 0.0
29 12:15 Calm 10.00 NULL NULL 72 64.6 78% 30.33 0.0
Date Time (edt) Wind (mph) Vis. (mi.) Weather Sky Cond. Air Dwpt Max. Min. Relative Humidity Wind Chill (°F) Heat Index (°F) altimeter (in) sea level (mb) 1 hr 3 hr 6 hr
6 hour
Temperature (ºF) Pressure Precipitation (in)